Latest Weather Observations for Cooktown

IDQ60801

Issued at 12:01 am EST Wednesday 1 June 2016 (issued every 30 minutes, with the page automatically refreshed every 10 minutes)

About weather observations | Map of weather stations | Latest weather observations for QLD | Other Formats
Station Details ID: 031209 Name: COOKTOWN AIRPORT Lat: -15.45 Lon: 145.19 Height: 4.8 m
Data from the previous 72 hours. | See also: Recent months at Cooktown
Date/Time
EST
Temp
°C
App
Temp
°C
Dew
Point
Rel
Hum
%
Delta-T
°C
Wind Press
QNH
hPa
Press
MSL
hPa
Rain
since 9 am
mm
Dir
 
Spd
km/h
Gust
km/h
Spd
kts
Gust
kts
01/12:00am 25.7 25.0 20.2 71 3.6 SE 24 41 13 22 1016.0 1016.0 5.2
 
Date/Time
EST
Temp
°C
App
Temp
°C
Dew
Point
Rel
Hum
%
Delta-T
°C
Wind Press
QNH
hPa
Press
MSL
hPa
Rain
since 9 am
mm
Dir
 
Spd
km/h
Gust
km/h
Spd
kts
Gust
kts
31/11:30pm 25.8 24.9 20.6 73 3.4 ESE 26 41 14 22 1016.4 - 5.2
31/11:00pm 25.7 25.7 21.0 75 3.1 SE 22 39 12 21 1016.6 - 5.2
31/10:30pm 25.9 25.5 20.9 74 3.3 ESE 24 39 13 21 1016.9 - 5.2
31/10:00pm 26.1 25.5 20.4 71 3.7 ESE 24 41 13 22 1016.8 - 5.2
31/09:30pm 25.9 25.5 20.9 74 3.3 SE 24 41 13 22 1016.7 - 5.2
31/09:00pm 25.8 25.8 20.9 74 3.2 ESE 22 33 12 18 1016.7 1016.7 5.2
31/08:30pm 26.0 26.0 21.0 74 3.3 ESE 22 33 12 18 1016.5 - 5.2
31/08:00pm 26.0 25.5 20.7 72 3.5 ESE 24 37 13 20 1016.2 - 5.2
31/07:30pm 25.8 26.0 21.4 76 2.9 ESE 22 32 12 17 1015.9 - 5.2
31/07:00pm 25.9 26.1 21.4 76 3.0 ESE 22 35 12 19 1015.7 - 5.2
31/06:30pm 26.1 26.7 21.4 75 3.1 SE 20 33 11 18 1015.6 - 5.2
31/06:00pm 26.0 26.6 21.3 75 3.1 SE 20 35 11 19 1015.4 1015.4 5.2
31/05:30pm 26.1 27.0 21.9 77 2.8 SE 20 37 11 20 1015.2 - 5.2
31/05:00pm 26.2 27.3 22.0 77 2.8 SE 19 32 10 17 1015.0 - 5.2
31/04:30pm 26.5 27.6 22.3 78 2.8 ESE 20 30 11 16 1014.8 - 5.2
31/04:00pm 26.7 27.0 22.2 76 3.0 ESE 24 41 13 22 1014.6 - 5.2
31/03:30pm 27.0 27.9 22.6 77 3.0 ESE 22 35 12 19 1014.6 - 5.2
31/03:00pm 27.1 28.4 23.3 80 2.6 ESE 22 30 12 16 1014.6 1014.6 5.2
31/02:30pm 27.3 27.8 23.3 79 2.7 ESE 26 35 14 19 1014.6 - 5.2
31/02:00pm 26.3 28.3 24.0 87 1.6 ESE 20 28 11 15 1014.7 - 5.2
31/01:56pm 25.9 28.1 23.9 89 1.4 SE 19 30 10 16 1014.8 - 5.2
31/01:31pm 25.1 26.3 22.1 83 2.0 SE 19 32 10 17 1015.3 - 2.2
31/01:30pm 25.7 27.5 23.3 86 1.6 SE 19 30 10 16 1015.4 - 1.8
31/01:05pm 25.4 27.0 23.3 88 1.4 SE 20 32 11 17 1015.6 - 1.4
31/01:00pm 25.3 27.1 23.2 88 1.4 SE 19 32 10 17 1015.7 - 1.4
31/12:50pm 25.1 25.8 23.0 88 1.4 ESE 24 35 13 19 1016.0 - 1.4
31/12:37pm 27.0 28.3 22.6 77 3.0 ESE 20 30 11 16 1016.0 - 1.2
31/12:30pm 26.6 27.5 22.6 78 2.7 SE 22 35 12 19 1016.2 - 1.2
31/12:13pm 26.7 28.6 23.5 82 2.2 SE 19 32 10 17 1016.5 - 1.2
31/12:00pm 25.4 27.1 23.0 86 1.6 ESE 19 28 10 15 1016.8 1016.9 1.2
31/11:45am 25.5 27.2 23.0 86 1.7 SE 19 28 10 15 1017.0 - 1.2
31/11:36am 25.5 27.3 23.3 88 1.5 SSE 19 28 10 15 1017.1 - 1.2
31/11:33am 25.6 27.5 23.4 88 1.5 SSE 19 28 10 15 1017.1 - 1.2
31/11:30am 26.0 28.3 24.1 89 1.3 SSE 19 24 10 13 1017.2 - 1.2
31/11:16am 25.5 26.4 23.4 88 1.4 ESE 24 35 13 19 1017.3 - 1.2
31/11:00am 27.8 29.5 23.4 77 3.0 ESE 20 30 11 16 1017.2 - 0.0
31/10:30am 28.3 29.4 23.6 75 3.2 ESE 24 35 13 19 1017.3 - 0.0
31/10:00am 28.6 30.4 23.5 74 3.5 ESE 20 28 11 15 1017.5 - 0.0
31/09:48am 28.1 30.5 23.6 76 3.1 ESE 17 30 9 16 1017.4 - 0.0
31/09:30am 26.4 29.3 23.2 82 2.2 SE 13 24 7 13 1017.5 - 0.0
31/09:07am 26.6 28.4 23.2 81 2.3 SE 19 28 10 15 1017.4 - 0.0
31/09:00am 28.0 29.8 23.5 76 3.1 E 20 24 11 13 1017.4 1017.3 0.4
31/08:30am 26.6 29.8 23.1 81 2.4 ESE 11 19 6 10 1016.9 - 0.4
31/08:00am 25.3 27.5 22.6 85 1.8 SE 15 22 8 12 1016.8 - 0.4
31/07:30am 26.1 27.4 22.4 80 2.5 SSE 19 28 10 15 1016.4 - 0.4
31/07:00am 25.8 26.9 21.9 79 2.6 ESE 19 26 10 14 1016.1 - 0.4
31/06:30am 25.4 26.5 21.9 81 2.3 ESE 19 28 10 15 1015.8 - 0.4
31/06:00am 25.6 26.5 22.0 80 2.4 ESE 20 28 11 15 1015.5 1015.5 0.4
31/05:30am 25.9 26.3 21.7 77 2.8 E 22 33 12 18 1015.3 - 0.4
31/05:00am 25.8 26.3 21.9 79 2.6 E 22 35 12 19 1015.2 - 0.4
31/04:30am 25.5 26.7 22.2 82 2.2 E 19 30 10 16 1015.2 - 0.4
31/04:00am 25.6 26.8 22.5 83 2.1 ESE 20 28 11 15 1014.9 - 0.4
31/03:30am 25.6 26.5 22.6 83 2.0 ESE 22 28 12 15 1015.0 - 0.4
31/03:00am 25.8 27.0 22.5 82 2.2 ESE 20 28 11 15 1015.1 1015.1 0.4
31/02:30am 25.8 26.6 22.5 82 2.2 ESE 22 30 12 16 1015.3 - 0.4
31/02:00am 25.8 27.0 22.2 80 2.4 ESE 19 24 10 13 1015.5 - 0.4
31/01:30am 25.4 26.7 22.4 83 2.0 ESE 19 32 10 17 1015.8 - 0.4
31/01:00am 25.4 26.5 22.4 83 2.0 ESE 20 30 11 16 1016.1 - 0.4
31/12:30am 24.8 26.5 22.3 86 1.7 ESE 17 24 9 13 1016.3 - 0.4
31/12:00am 24.7 25.9 21.5 82 2.1 SE 17 22 9 12 1016.4 1016.4 0.4
 
Date/Time
EST
Temp
°C
App
Temp
°C
Dew
Point
Rel
Hum
%
Delta-T
°C
Wind Press
QNH
hPa
Press
MSL
hPa
Rain
since 9 am
mm
Dir
 
Spd
km/h
Gust
km/h
Spd
kts
Gust
kts
30/11:30pm 25.2 24.7 20.8 76 2.9 ESE 24 43 13 23 1016.7 - 0.4
30/11:00pm 25.5 28.3 23.0 86 1.7 ESE 13 20 7 11 1016.5 - 0.4
30/10:30pm 25.2 27.6 23.0 87 1.5 ESE 15 20 8 11 1016.6 - 0.4
30/10:00pm 25.4 27.0 22.9 86 1.7 SE 19 32 10 17 1016.6 - 0.4
30/09:30pm 25.2 27.5 23.4 90 1.2 SE 17 30 9 16 1016.7 - 0.4
30/09:00pm 24.9 25.7 22.5 86 1.6 SE 22 35 12 19 1016.7 1016.6 0.4
30/08:45pm 26.2 26.9 22.3 79 2.6 SE 22 35 12 19 1016.6 - 0.0
30/08:30pm 26.1 27.8 23.0 83 2.1 SE 19 26 10 14 1016.6 - 0.0
30/08:00pm 25.9 28.6 23.4 86 1.7 SE 15 22 8 12 1016.3 - 0.0
30/07:55pm 25.9 28.7 23.6 87 1.6 SE 15 22 8 12 1016.2 - 0.0
30/07:30pm 25.7 28.1 22.9 84 1.9 SE 15 22 8 12 1016.0 - 0.0
30/07:00pm 25.5 27.8 22.8 85 1.8 SE 15 20 8 11 1015.6 - 0.0
30/06:30pm 25.6 28.0 22.9 85 1.8 SE 15 24 8 13 1015.2 - 0.0
30/06:18pm 25.7 28.1 23.0 85 1.8 SE 15 28 8 15 1015.2 - 0.0
30/06:00pm 25.7 28.1 22.9 84 1.9 SE 15 20 8 11 1015.1 1015.0 0.0
30/05:30pm 26.0 27.9 22.7 82 2.2 SE 17 28 9 15 1014.9 - 0.0
30/05:29pm 25.9 27.8 22.8 83 2.1 SE 17 28 9 15 1014.9 - 0.0
30/05:00pm 26.2 27.9 23.1 83 2.1 SE 19 30 10 16 1014.8 - 0.0
30/04:58pm 26.1 27.8 23.0 83 2.1 SE 19 30 10 16 1014.8 - 0.0
30/04:30pm 27.2 28.9 23.1 78 2.8 SE 19 28 10 15 1014.7 - 0.0
30/04:00pm 27.2 28.2 22.8 77 3.0 SE 22 35 12 19 1014.5 - 0.0
30/03:30pm 27.4 28.8 22.8 76 3.1 SE 20 28 11 15 1014.4 - 0.0
30/03:00pm 27.6 28.9 22.3 73 3.6 SE 19 28 10 15 1014.5 1014.5 0.0
30/02:30pm 27.7 28.4 22.2 72 3.7 SE 22 33 12 18 1014.7 - 0.0
30/02:00pm 28.8 30.0 22.5 68 4.3 ESE 20 30 11 16 1014.9 - 0.0
30/01:30pm 29.5 29.4 22.3 65 4.9 E 26 32 14 17 1015.2 - 0.0
30/01:00pm 28.8 28.9 21.8 66 4.7 E 24 35 13 19 1015.6 - 0.0
30/12:30pm 29.6 29.6 22.4 65 4.9 E 26 35 14 19 1016.2 - 0.0
30/12:00pm 28.2 28.2 21.6 67 4.4 ESE 24 39 13 21 1016.6 1016.7 0.0
30/11:30am 29.0 28.8 22.0 66 4.7 E 26 33 14 18 1017.1 - 0.0
30/11:00am 28.7 28.8 21.8 66 4.6 ESE 24 37 13 20 1017.2 - 0.0
30/10:30am 27.6 27.5 21.4 69 4.1 ESE 24 35 13 19 1017.4 - 0.0
30/10:00am 27.9 28.0 21.8 69 4.1 E 24 32 13 17 1017.4 - 0.0
30/09:30am 28.1 28.4 22.2 70 4.0 ESE 24 32 13 17 1017.4 - 0.0
30/09:00am 27.1 27.0 21.5 71 3.7 ESE 24 33 13 18 1017.3 1017.2 0.2
30/08:30am 26.7 27.2 21.9 75 3.2 ESE 22 28 12 15 1016.9 - 0.2
30/08:00am 26.5 27.7 21.5 74 3.3 ESE 17 26 9 14 1016.6 - 0.2
30/07:30am 25.8 27.0 21.4 76 2.9 ESE 17 22 9 12 1016.3 - 0.2
30/07:00am 25.3 26.0 21.2 78 2.7 ESE 19 32 10 17 1016.1 - 0.2
30/06:30am 25.2 26.3 21.3 79 2.6 ESE 17 26 9 14 1015.9 - 0.2
30/06:00am 25.1 26.7 21.5 80 2.4 ESE 15 24 8 13 1015.6 1015.6 0.2
30/05:30am 25.5 26.6 21.3 77 2.8 ESE 17 24 9 13 1015.5 - 0.2
30/05:00am 25.3 26.5 21.4 79 2.6 ESE 17 26 9 14 1015.2 - 0.2
30/04:30am 25.2 26.1 21.6 80 2.4 ESE 19 30 10 16 1015.1 - 0.2
30/04:00am 25.2 27.7 21.7 81 2.3 ESE 11 15 6 8 1014.9 - 0.2
30/03:30am 25.2 27.2 21.6 80 2.4 ESE 13 26 7 14 1014.9 - 0.2
30/03:00am 25.2 27.2 21.6 80 2.4 ESE 13 19 7 10 1015.1 1015.1 0.2
30/02:30am 25.2 26.5 21.7 81 2.3 ESE 17 22 9 12 1015.2 - 0.2
30/02:00am 25.4 27.4 21.6 79 2.5 ESE 13 20 7 11 1015.5 - 0.2
30/01:30am 25.0 27.1 21.7 82 2.2 ESE 13 20 7 11 1015.4 - 0.2
30/01:00am 25.2 27.2 21.6 80 2.4 ESE 13 20 7 11 1015.4 - 0.2
30/12:30am 25.2 27.8 21.9 82 2.2 ESE 11 17 6 9 1015.8 - 0.2
30/12:00am 25.1 27.8 22.1 83 2.0 SE 11 17 6 9 1015.8 1015.8 0.2
 
Date/Time
EST
Temp
°C
App
Temp
°C
Dew
Point
Rel
Hum
%
Delta-T
°C
Wind Press
QNH
hPa
Press
MSL
hPa
Rain
since 9 am
mm
Dir
 
Spd
km/h
Gust
km/h
Spd
kts
Gust
kts
29/11:30pm 25.2 27.5 22.1 83 2.1 ESE 13 20 7 11 1016.0 - 0.2
29/11:00pm 25.0 27.4 22.2 84 1.9 ESE 13 19 7 10 1016.1 - 0.2
29/10:30pm 24.4 27.1 22.1 87 1.5 ESE 11 15 6 8 1016.3 - 0.2
29/10:00pm 24.6 27.7 22.2 86 1.6 ESE 9 13 5 7 1016.3 - 0.2
29/09:30pm 24.8 28.0 22.3 86 1.7 SE 9 15 5 8 1016.3 - 0.2
29/09:00pm 24.4 26.7 22.1 87 1.5 ESE 13 15 7 8 1016.0 1016.0 0.2
29/08:30pm 24.6 27.1 22.4 87 1.5 ESE 13 15 7 8 1015.8 - 0.2
29/08:00pm 25.1 28.0 22.4 85 1.8 ESE 11 17 6 9 1015.6 - 0.2
29/07:30pm 24.9 27.8 22.4 86 1.7 ESE 11 17 6 9 1015.3 - 0.2
29/07:00pm 24.9 27.6 22.2 85 1.8 ESE 11 15 6 8 1014.9 - 0.2
29/06:30pm 25.0 28.2 22.3 85 1.8 ESE 9 13 5 7 1014.6 - 0.2
29/06:00pm 25.2 27.6 22.2 83 2.0 E 13 15 7 8 1014.6 1014.6 0.2
29/05:30pm 26.2 27.8 22.2 78 2.7 E 17 20 9 11 1014.5 - 0.2
29/05:21pm 26.4 28.0 22.2 78 2.8 E 17 24 9 13 1014.5 - 0.2
29/05:00pm 26.3 28.2 22.7 80 2.4 E 17 22 9 12 1014.4 - 0.2
29/04:48pm 27.2 29.2 22.9 77 2.9 E 17 22 9 12 1014.3 - 0.2
29/04:30pm 27.4 28.8 22.5 74 3.3 E 19 24 10 13 1014.2 - 0.2
29/04:00pm 28.3 30.1 23.3 74 3.4 E 19 26 10 14 1014.0 - 0.2
29/03:30pm 27.9 29.4 22.7 73 3.5 E 19 26 10 14 1013.9 - 0.2
29/03:00pm 28.0 28.8 22.5 72 3.7 E 22 28 12 15 1014.0 1014.1 0.2
29/02:30pm 27.3 28.9 22.9 77 3.0 ESE 19 26 10 14 1014.2 - 0.2
29/02:00pm 28.0 30.2 23.2 75 3.3 ESE 17 24 9 13 1014.2 - 0.2
29/01:30pm 28.6 30.4 23.3 73 3.6 E 19 26 10 14 1014.6 - 0.2
29/01:00pm 28.7 30.1 22.8 70 4.0 E 20 28 11 15 1014.8 - 0.2
29/12:30pm 27.8 29.4 22.8 74 3.4 E 19 24 10 13 1015.1 - 0.2
29/12:00pm 28.6 30.7 23.7 75 3.4 ESE 19 24 10 13 1015.3 1015.3 0.2
29/11:30am 28.4 30.0 22.8 71 3.8 ESE 19 24 10 13 1015.4 - 0.2
29/11:00am 28.2 29.2 22.8 72 3.7 E 22 28 12 15 1015.7 - 0.2
29/10:30am 28.1 29.6 23.0 74 3.5 E 20 26 11 14 1015.8 - 0.0
29/10:00am 27.6 29.1 23.0 76 3.1 E 20 26 11 14 1016.0 - 0.0
29/09:30am 27.5 29.1 22.9 76 3.1 ESE 19 24 10 13 1016.3 - 0.0
29/09:19am 27.7 31.0 23.9 80 2.6 SE 13 20 7 11 1016.3 - 0.0
29/09:02am 26.8 31.4 24.2 86 1.8 S 7 11 4 6 1016.2 - 0.0
29/09:00am 26.5 31.1 24.2 87 1.6 S 7 11 4 6 1016.2 1016.2 0.2
29/08:34am 25.1 29.6 23.6 91 1.0 S 6 9 3 5 1016.0 - 0.2
29/08:30am 24.9 30.2 23.7 93 0.8 SSW 2 7 1 4 1016.0 - 0.2
29/08:00am 23.3 28.0 22.7 96 0.4 S 2 9 1 5 1015.6 - 0.2
29/07:30am 22.6 26.3 22.3 98 0.2 N 6 11 3 6 1015.3 - 0.2
29/07:18am 22.2 25.7 21.9 98 0.2 NW 6 7 3 4 1015.2 - 0.0
29/07:16am 22.2 25.6 21.7 97 0.3 NW 6 7 3 4 1015.2 - 0.0
29/07:00am 22.0 25.4 21.7 98 0.2 NNW 6 6 3 3 1015.0 - 0.0
29/06:44am 21.5 25.7 21.0 97 0.3 CALM 0 0 0 0 1014.9 - 0.0
29/06:30am 21.6 26.0 21.3 98 0.2 CALM 0 0 0 0 1014.7 - 0.0
29/06:00am 21.6 25.6 21.3 98 0.2 W 2 6 1 3 1014.3 1014.2 0.0
29/05:30am 21.4 24.5 21.1 98 0.2 WNW 6 9 3 5 1013.9 - 0.0
29/05:00am 21.8 25.9 21.5 98 0.2 WNW 2 9 1 5 1013.6 - 0.0
29/04:30am 21.7 26.1 21.4 98 0.2 CALM 0 0 0 0 1013.4 - 0.0
29/04:00am 21.6 26.0 21.3 98 0.2 CALM 0 0 0 0 1013.3 - 0.0
29/03:30am 21.7 26.1 21.4 98 0.2 CALM 0 0 0 0 1013.1 - 0.0
29/03:00am 22.1 25.6 21.8 98 0.2 WNW 6 7 3 4 1013.3 1013.3 0.0
29/02:58am 22.0 25.4 21.7 98 0.2 WNW 6 7 3 4 1013.3 - 0.0
29/02:39am 22.0 26.6 21.7 98 0.2 CALM 0 0 0 0 1013.1 - 0.0
29/02:30am 21.8 26.2 21.3 97 0.3 CALM 0 0 0 0 1013.1 - 0.0
29/02:24am 22.1 26.8 21.9 99 0.1 CALM 0 0 0 0 1013.2 - 0.0
29/02:05am 22.2 26.9 22.0 99 0.1 CALM 0 0 0 0 1013.4 - 0.0
29/02:00am 22.5 27.3 22.2 98 0.2 CALM 0 0 0 0 1013.4 - 0.0
29/01:30am 22.4 27.2 22.2 99 0.1 CALM 0 0 0 0 1013.5 - 0.0
29/01:00am 23.1 28.3 22.8 98 0.2 CALM 0 0 0 0 1013.7 - 0.0
29/12:41am 23.2 28.4 22.8 98 0.3 CALM 0 0 0 0 1013.8 - 0.0
29/12:30am 23.2 28.4 22.8 98 0.3 CALM 0 0 0 0 1013.8 - 0.0
29/12:25am 23.3 28.5 22.9 98 0.3 CALM 0 0 0 0 1013.9 - 0.0

Other Formats:

Comma delimited format used in spreadsheet applications
http://www.bom.gov.au/fwo/IDQ60801/IDQ60801.95283.axf

JavaScript Object Notation format (JSON) in row-major order
http://www.bom.gov.au/fwo/IDQ60801/IDQ60801.95283.json